Huvudsida
METAR-TAF:

METAR-TAF

Flygplatser :

Adolfo Suárez Madrid-Barajas flygplats

Madrid, Spanien

latitud: 40-27N, longitud: 003-33W, höjd: 609 m

Aktuellt väderrapport

Denna rapport gjordes för 26 minuter sedan, klockan 18:30 UTC
Vind 7 kt från väst
Temperatur 9°C
Fuktighet 53%
Tryck 1011 hPa
Sikt 10 km eller mer
Få moln på en höjd av 6000 ft

METAR: LEMD 131830Z 28007KT 9999 FEW060 09/00 Q1011 R88/29//95 NOSIG

Tid: 19:56 (18:56 UTC)

Väderprognos

Denna rapport gjordes för 1 timme och 56 minuter sedan, klockan 17:00 UTC
Prognos gäller från 13 kl. 18 UTC till 14 kl. 24 UTC
Vind 8 kt från nord
Sikt 10 km eller mer
Spridda moln på en höjd av 5500 ft

TAF: LEMD 131700Z 1318/1424 35008KT 9999 SCT055 TX10/1415Z TN03/1408Z

Aktuella väderrapporter och prognoser från 4000 flygplatser (METAR- och TAF-rapporter).

De tillgängliga stationerna syns som gula och röda prickar på kartan.

För musen över prickarna för att se namnen på stationerna.

Klicka sedan för att få väderrapporter och prognoser.

För att ändra kartan: Klicka på de gröna knapparna med ett svart kors på för att zooma in; den gröna knappen med ett streck på för att zooma ut; eller på de gröna pilarna för angränsande kartor.


METAR-TAF: